Time;durP1;ratioP1;P1;durP2;ratioP2;P2;SDS_P1;SDS_P2;PMS_P1;PMS_P2;Temp;Humidity;BMP_temperature;BMP_pressure;BME280_temperature;BME280_humidity;BME280_pressure;Samples;Min_cycle;Max_cycle;Signal;HPM_P1;HPM_P2
2021/06/29 00:01:15;;;;;;;3.17;1.77;;;21.20;90.70;;;;;;4976436;28;20113;-85
2021/06/29 00:03:41;;;;;;;3.08;1.85;;;21.30;91.00;;;;;;4977729;28;20176;-82
2021/06/29 00:06:07;;;;;;;3.20;2.30;;;21.10;90.90;;;;;;4977089;28;20037;-84
2021/06/29 00:08:32;;;;;;;2.60;1.80;;;21.10;90.90;;;;;;4974750;28;20026;-83
2021/06/29 00:10:58;;;;;;;2.35;1.80;;;21.20;91.20;;;;;;4985412;28;20017;-83
2021/06/29 00:13:24;;;;;;;2.95;2.08;;;21.30;91.20;;;;;;4979901;28;20026;-82
2021/06/29 00:15:49;;;;;;;2.28;2.08;;;21.30;90.90;;;;;;4970737;28;20025;-81
2021/06/29 00:18:16;;;;;;;4.57;2.05;;;21.30;91.20;;;;;;4965860;28;20522;-85
2021/06/29 00:20:41;;;;;;;4.38;2.17;;;21.40;91.00;;;;;;4974357;28;20076;-84
2021/06/29 00:23:07;;;;;;;4.05;2.10;;;21.30;91.10;;;;;;4976513;28;20026;-86
2021/06/29 00:25:33;;;;;;;3.30;1.90;;;21.30;91.40;;;;;;4977160;28;20161;-85
2021/06/29 00:27:59;;;;;;;1.58;1.48;;;21.30;91.30;;;;;;4977237;28;20034;-85
2021/06/29 00:30:25;;;;;;;4.55;2.15;;;21.30;91.00;;;;;;4976703;28;20033;-84
2021/06/29 00:32:52;;;;;;;2.85;2.00;;;21.30;90.80;;;;;;4977008;28;20475;-85
2021/06/29 00:35:17;;;;;;;2.97;2.00;;;21.30;90.70;;;;;;4976844;28;20026;-84
2021/06/29 00:37:43;;;;;;;3.17;2.10;;;21.30;90.70;;;;;;4977839;28;20052;-85
2021/06/29 00:40:10;;;;;;;3.15;1.90;;;21.30;90.80;;;;;;4976752;28;20034;-86
2021/06/29 00:42:37;;;;;;;3.13;2.28;;;21.30;91.00;;;;;;4978624;28;20033;-84
2021/06/29 00:45:06;;;;;;;5.32;2.28;;;21.20;90.90;;;;;;4998522;28;20485;-84
2021/06/29 00:47:32;;;;;;;2.33;2.10;;;21.20;91.30;;;;;;4980943;28;20030;-84
2021/06/29 00:49:58;;;;;;;4.32;2.03;;;21.00;91.70;;;;;;4981132;28;20022;-84
2021/06/29 00:52:25;;;;;;;4.25;2.13;;;21.00;91.70;;;;;;4980879;28;20022;-84
2021/06/29 00:54:51;;;;;;;2.40;1.92;;;21.10;91.70;;;;;;4981271;28;20434;-85
2021/06/29 00:57:17;;;;;;;2.40;2.15;;;21.10;91.50;;;;;;4980193;28;20117;-85
2021/06/29 00:59:43;;;;;;;2.33;1.85;;;21.10;91.30;;;;;;4980796;28;20104;-83
2021/06/29 01:02:10;;;;;;;6.53;2.40;;;21.10;91.20;;;;;;4980473;28;20031;-84
2021/06/29 01:04:41;;;;;;;2.45;2.17;;;21.20;91.20;;;;;;4980898;28;20085;-83
2021/06/29 01:07:09;;;;;;;5.30;1.97;;;21.10;91.10;;;;;;4980759;28;20027;-85
2021/06/29 01:09:36;;;;;;;3.10;2.00;;;21.10;91.10;;;;;;4998142;28;20089;-83
2021/06/29 01:12:02;;;;;;;2.83;2.13;;;21.00;91.30;;;;;;4998090;28;20026;-83
2021/06/29 01:14:27;;;;;;;4.13;2.00;;;20.90;91.30;;;;;;4997421;28;20080;-84
2021/06/29 01:16:53;;;;;;;3.47;2.10;;;20.90;91.30;;;;;;4980584;28;20077;-84
2021/06/29 01:19:21;;;;;;;2.10;1.80;;;21.00;91.30;;;;;;4980133;28;20022;-84
2021/06/29 01:21:49;;;;;;;2.65;1.92;;;21.10;91.20;;;;;;4980163;28;20022;-83
2021/06/29 01:24:22;;;;;;;3.35;1.60;;;21.00;91.10;;;;;;4979930;28;20437;-84
2021/06/29 01:26:59;;;;;;;4.97;1.83;;;21.00;91.00;;;;;;4980477;28;20030;-84
2021/06/29 01:29:39;;;;;;;3.42;2.10;;;21.00;90.90;;;;;;4979657;28;20026;-84
2021/06/29 01:32:05;;;;;;;2.40;2.05;;;21.00;91.00;;;;;;4980046;28;20078;-83
2021/06/29 01:34:31;;;;;;;2.35;2.10;;;20.90;90.90;;;;;;4980137;28;20030;-83
2021/06/29 01:36:56;;;;;;;3.08;1.90;;;20.90;91.20;;;;;;4980236;28;20375;-84
2021/06/29 01:39:22;;;;;;;2.60;2.08;;;21.00;91.10;;;;;;4979585;28;20037;-84
2021/06/29 01:41:47;;;;;;;3.15;2.20;;;21.00;91.20;;;;;;4997484;28;20026;-84
2021/06/29 01:44:26;;;;;;;4.47;1.80;;;21.10;91.10;;;;;;4980039;28;20026;-85
2021/06/29 01:46:54;;;;;;;3.55;1.92;;;21.00;90.90;;;;;;4980287;28;20030;-84
2021/06/29 01:49:29;;;;;;;1.80;1.60;;;21.00;91.00;;;;;;4979992;28;20026;-84
2021/06/29 01:51:55;;;;;;;3.00;2.17;;;21.00;91.10;;;;;;4980362;28;20474;-84
2021/06/29 01:54:22;;;;;;;8.70;2.30;;;20.90;91.10;;;;;;4996180;28;20105;-84
2021/06/29 01:56:49;;;;;;;2.78;1.60;;;20.80;91.10;;;;;;4980398;28;20030;-83
2021/06/29 01:59:19;;;;;;;2.88;1.70;;;20.80;91.10;;;;;;4979512;28;20022;-84
2021/06/29 02:01:45;;;;;;;6.97;1.90;;;20.70;91.00;;;;;;4980004;28;20057;-83
2021/06/29 02:04:11;;;;;;;4.82;2.47;;;20.70;91.10;;;;;;4979540;28;20022;-86
2021/06/29 02:06:41;;;;;;;5.32;2.20;;;20.70;91.20;;;;;;4979859;28;20466;-83
2021/06/29 02:09:08;;;;;;;5.22;2.03;;;20.70;91.30;;;;;;4997070;28;20034;-83
2021/06/29 02:11:37;;;;;;;4.68;1.92;;;20.60;91.40;;;;;;4979706;28;20479;-84
2021/06/29 02:14:03;;;;;;;3.13;2.10;;;20.70;91.40;;;;;;4979857;28;20207;-84
2021/06/29 02:16:28;;;;;;;3.75;1.90;;;20.70;91.30;;;;;;4979361;28;20026;-84
2021/06/29 02:18:54;;;;;;;2.65;2.00;;;20.70;91.30;;;;;;4996674;28;20470;-83
2021/06/29 02:21:20;;;;;;;3.17;1.90;;;20.70;91.40;;;;;;4979140;28;20065;-83
2021/06/29 02:23:45;;;;;;;2.50;1.88;;;20.60;91.40;;;;;;4979581;28;20044;-83
2021/06/29 02:26:11;;;;;;;3.67;2.15;;;20.60;91.30;;;;;;4979424;28;20026;-84
2021/06/29 02:28:36;;;;;;;3.53;2.20;;;20.60;91.40;;;;;;4996588;28;20054;-83
2021/06/29 02:31:02;;;;;;;2.65;2.10;;;20.60;91.50;;;;;;4979295;28;20031;-83
2021/06/29 02:33:27;;;;;;;2.72;2.00;;;20.60;91.50;;;;;;4996398;28;20044;-85
2021/06/29 02:35:53;;;;;;;2.33;2.00;;;20.50;91.60;;;;;;4979458;28;20113;-84
2021/06/29 02:38:19;;;;;;;3.08;1.85;;;20.50;91.50;;;;;;4978941;28;20471;-85
2021/06/29 02:40:44;;;;;;;4.13;2.15;;;20.50;91.40;;;;;;4979465;28;20022;-85
2021/06/29 02:43:15;;;;;;;3.03;1.98;;;20.50;91.40;;;;;;4979079;28;20018;-86
2021/06/29 02:45:41;;;;;;;4.63;1.90;;;20.50;91.70;;;;;;4979352;28;20030;-83
2021/06/29 02:48:07;;;;;;;2.95;2.05;;;20.40;91.70;;;;;;4979167;28;20454;-84
2021/06/29 02:50:33;;;;;;;6.03;1.92;;;20.40;91.70;;;;;;4978830;28;20308;-84
2021/06/29 02:52:59;;;;;;;2.05;1.60;;;20.40;91.50;;;;;;4979511;28;20142;-84
2021/06/29 02:55:24;;;;;;;3.17;2.05;;;20.50;91.60;;;;;;4978773;28;20455;-85
2021/06/29 02:57:50;;;;;;;3.05;1.77;;;20.40;91.70;;;;;;4996424;28;20364;-84
2021/06/29 03:00:18;;;;;;;3.00;1.83;;;20.50;91.30;;;;;;4978408;28;20355;-85
2021/06/29 03:02:44;;;;;;;3.60;1.88;;;20.40;91.30;;;;;;4996184;28;20060;-84
2021/06/29 03:05:10;;;;;;;2.80;1.98;;;20.50;91.30;;;;;;4978643;28;20451;-83
2021/06/29 03:07:36;;;;;;;2.42;1.85;;;20.50;91.10;;;;;;4977251;28;20034;-84
2021/06/29 03:10:06;;;;;;;2.22;2.03;;;20.50;91.00;;;;;;4978777;28;20423;-83
2021/06/29 03:12:33;;;;;;;3.95;1.50;;;20.50;91.10;;;;;;4977860;28;20026;-83
2021/06/29 03:14:59;;;;;;;3.83;1.85;;;20.40;91.10;;;;;;4978807;28;20173;-83
2021/06/29 03:17:25;;;;;;;4.50;1.90;;;20.40;91.00;;;;;;4978004;28;20034;-84
2021/06/29 03:19:51;;;;;;;4.70;1.55;;;20.40;91.20;;;;;;4978449;28;20083;-84
2021/06/29 03:22:17;;;;;;;4.90;1.70;;;20.40;91.40;;;;;;4994829;28;20117;-85
2021/06/29 03:24:43;;;;;;;3.38;1.75;;;20.40;91.50;;;;;;4978215;28;20471;-83
2021/06/29 03:27:09;;;;;;;2.63;1.73;;;20.40;91.50;;;;;;4978025;28;20030;-83
2021/06/29 03:29:36;;;;;;;2.92;2.03;;;20.40;91.60;;;;;;4977562;28;20237;-83
2021/06/29 03:32:01;;;;;;;3.85;1.70;;;20.50;91.40;;;;;;4977648;28;20030;-83
2021/06/29 03:34:27;;;;;;;2.35;1.80;;;20.40;91.30;;;;;;4977679;28;20025;-83
2021/06/29 03:36:53;;;;;;;2.40;1.75;;;20.50;91.30;;;;;;4977911;28;20040;-84
2021/06/29 03:39:19;;;;;;;4.10;1.75;;;20.50;91.40;;;;;;4977160;28;20026;-84
2021/06/29 03:41:45;;;;;;;1.80;1.70;;;20.40;91.30;;;;;;4978019;28;20526;-83
2021/06/29 03:44:11;;;;;;;2.72;1.40;;;20.40;91.40;;;;;;4977961;28;20026;-84
2021/06/29 03:46:36;;;;;;;2.20;1.77;;;20.40;91.20;;;;;;4977106;28;20030;-83
2021/06/29 03:49:02;;;;;;;1.80;1.70;;;20.40;91.00;;;;;;4977860;28;20030;-84
2021/06/29 03:51:28;;;;;;;1.70;1.60;;;20.40;91.00;;;;;;4977485;28;20022;-84
2021/06/29 03:53:54;;;;;;;3.25;1.80;;;20.30;91.00;;;;;;4995037;28;20481;-84
2021/06/29 03:56:29;;;;;;;2.03;1.50;;;20.40;91.00;;;;;;4994582;28;20027;-84
2021/06/29 03:59:00;;;;;;;2.58;1.45;;;20.40;90.90;;;;;;4978162;28;20029;-83
2021/06/29 04:01:27;;;;;;;;;;;20.40;90.80;;;;;;4975079;28;20117;-82
2021/06/29 04:03:56;;;;;;;2.50;1.48;;;20.50;90.60;;;;;;4977687;28;19992;-82
2021/06/29 04:06:26;;;;;;;2.00;1.67;;;20.50;90.50;;;;;;4976830;28;20029;-82
2021/06/29 04:08:53;;;;;;;1.50;1.40;;;20.50;90.40;;;;;;4977409;28;20026;-82
2021/06/29 04:11:20;;;;;;;1.60;1.35;;;20.50;90.20;;;;;;4976083;28;20054;-87
2021/06/29 04:13:46;;;;;;;2.50;1.30;;;20.50;90.10;;;;;;4977354;28;20022;-83
2021/06/29 04:16:12;;;;;;;1.48;1.35;;;20.50;90.00;;;;;;4994563;28;20034;-82
2021/06/29 04:18:37;;;;;;;1.40;1.30;;;20.60;89.80;;;;;;4976504;28;20029;-84
2021/06/29 04:21:03;;;;;;;1.75;1.33;;;20.60;89.70;;;;;;4970783;28;20353;-83
2021/06/29 04:23:29;;;;;;;1.30;1.10;;;20.50;89.70;;;;;;4974753;28;20027;-85
2021/06/29 04:25:55;;;;;;;2.60;1.40;;;20.40;90.20;;;;;;4958317;28;20023;-86
2021/06/29 04:28:40;;;;;;;3.30;1.65;;;20.40;90.60;;;;;;4959972;28;20100;-85
2021/06/29 04:31:06;;;;;;;2.08;1.48;;;20.30;90.80;;;;;;4959582;28;20023;-83
2021/06/29 04:33:32;;;;;;;2.22;1.55;;;20.30;90.70;;;;;;4957046;28;20485;-85
2021/06/29 04:35:57;;;;;;;4.75;1.40;;;20.30;91.00;;;;;;4958179;28;20038;-83
2021/06/29 04:38:23;;;;;;;2.97;1.23;;;20.30;90.80;;;;;;4957424;28;20451;-84
2021/06/29 04:40:48;;;;;;;1.65;1.50;;;20.40;90.80;;;;;;4974519;28;20448;-85
2021/06/29 04:43:14;;;;;;;3.25;1.67;;;20.40;90.70;;;;;;4963035;28;20030;-85
2021/06/29 04:45:40;;;;;;;2.28;1.60;;;20.40;90.60;;;;;;4967875;28;20014;-84
2021/06/29 04:48:06;;;;;;;2.55;1.67;;;20.40;90.40;;;;;;4969484;28;20546;-83
2021/06/29 04:50:32;;;;;;;2.40;1.50;;;20.40;90.40;;;;;;4991638;28;20058;-84
2021/06/29 04:52:57;;;;;;;3.75;1.73;;;20.30;90.60;;;;;;4962299;28;20065;-84
2021/06/29 04:55:23;;;;;;;3.22;1.52;;;20.30;90.70;;;;;;4990770;28;20050;-84
2021/06/29 04:57:49;;;;;;;2.63;1.63;;;20.40;90.50;;;;;;4977247;28;20030;-83
2021/06/29 05:00:17;;;;;;;1.92;1.40;;;20.40;90.30;;;;;;4962565;28;20469;-84
2021/06/29 05:02:44;;;;;;;2.65;1.55;;;20.50;90.30;;;;;;4973197;28;20030;-84
2021/06/29 05:05:10;;;;;;;2.60;1.40;;;20.50;90.10;;;;;;4957926;28;20023;-83
2021/06/29 05:07:38;;;;;;;3.55;1.60;;;20.60;90.00;;;;;;4957198;28;20027;-82
2021/06/29 05:10:08;;;;;;;4.95;1.80;;;20.60;89.70;;;;;;4992967;28;20034;-83
2021/06/29 05:12:34;;;;;;;2.33;1.50;;;20.60;89.30;;;;;;4957375;28;20027;-83
2021/06/29 05:15:00;;;;;;;1.75;1.40;;;20.60;89.10;;;;;;4957734;28;20030;-83
2021/06/29 05:17:26;;;;;;;2.75;1.73;;;20.60;89.10;;;;;;4957325;28;20027;-84
2021/06/29 05:19:52;;;;;;;2.58;1.40;;;20.60;89.70;;;;;;4976258;28;20022;-84
2021/06/29 05:22:17;;;;;;;8.32;1.60;;;20.70;89.60;;;;;;4958925;28;20452;-83
2021/06/29 05:24:43;;;;;;;3.47;1.40;;;20.60;89.10;;;;;;4957237;28;20093;-83
2021/06/29 05:27:09;;;;;;;2.33;1.27;;;20.60;89.20;;;;;;4957725;28;20023;-83
2021/06/29 05:29:34;;;;;;;1.50;1.40;;;20.70;88.90;;;;;;4967915;28;20022;-84
2021/06/29 05:32:00;;;;;;;1.90;1.42;;;20.70;88.80;;;;;;4977306;28;20030;-85
2021/06/29 05:34:26;;;;;;;2.55;1.40;;;20.70;89.20;;;;;;4980003;28;20447;-84
2021/06/29 05:36:51;;;;;;;1.98;1.13;;;20.80;90.10;;;;;;4980085;28;20030;-83
2021/06/29 05:39:17;;;;;;;2.22;1.50;;;20.80;90.10;;;;;;4980261;28;20054;-83
2021/06/29 05:41:44;;;;;;;1.52;1.23;;;20.90;89.30;;;;;;4966946;28;20282;-83
2021/06/29 05:44:10;;;;;;;1.63;1.40;;;20.80;88.30;;;;;;4960541;28;20026;-83
2021/06/29 05:46:36;;;;;;;2.22;1.20;;;20.90;88.00;;;;;;4960984;28;20041;-84
2021/06/29 05:49:04;;;;;;;1.67;1.20;;;21.00;87.70;;;;;;4960965;28;20031;-84
2021/06/29 05:51:30;;;;;;;1.35;1.25;;;21.00;87.20;;;;;;4970654;28;20031;-84
2021/06/29 05:53:55;;;;;;;2.33;1.40;;;21.00;88.00;;;;;;4980317;28;20030;-83
2021/06/29 05:56:21;;;;;;;3.30;1.50;;;20.90;87.70;;;;;;4978704;28;20033;-84
2021/06/29 05:58:47;;;;;;;1.52;1.20;;;21.00;86.90;;;;;;4971847;28;20161;-84
2021/06/29 06:01:12;;;;;;;3.38;1.38;;;21.00;86.40;;;;;;4973543;28;20367;-82
2021/06/29 06:03:38;;;;;;;2.22;1.33;;;21.00;86.00;;;;;;4987999;28;20023;-85
2021/06/29 06:06:04;;;;;;;1.92;1.33;;;21.10;86.00;;;;;;4969189;28;20023;-85
2021/06/29 06:08:30;;;;;;;2.85;1.58;;;21.00;86.50;;;;;;4963436;28;20018;-88
2021/06/29 06:10:56;;;;;;;3.40;1.35;;;21.00;86.50;;;;;;4988654;28;20054;-90
2021/06/29 06:13:22;;;;;;;2.75;1.52;;;21.10;86.30;;;;;;4969222;28;20036;-88
2021/06/29 06:15:48;;;;;;;2.20;1.50;;;21.10;86.00;;;;;;4968801;28;20106;-88
2021/06/29 06:18:14;;;;;;;1.65;1.40;;;21.10;86.70;;;;;;4974490;28;20050;-87
2021/06/29 06:20:40;;;;;;;1.80;1.30;;;21.10;86.40;;;;;;4981331;28;20033;-90
2021/06/29 06:23:06;;;;;;;2.97;1.60;;;21.20;86.60;;;;;;4960351;28;20027;-93
2021/06/29 06:25:33;;;;;;;3.03;1.58;;;21.20;86.90;;;;;;4965233;28;20030;-89
2021/06/29 06:27:59;;;;;;;2.50;1.30;;;21.20;86.20;;;;;;4963193;28;20370;-88
2021/06/29 06:30:25;;;;;;;3.60;1.42;;;21.30;86.10;;;;;;4979632;28;20117;-92
2021/06/29 06:32:51;;;;;;;5.13;1.77;;;21.30;86.50;;;;;;4992537;28;20126;-92
2021/06/29 06:35:17;;;;;;;4.30;1.33;;;21.30;86.00;;;;;;4979344;28;20351;-93
2021/06/29 06:37:42;;;;;;;2.88;1.40;;;21.40;85.70;;;;;;4979105;28;20026;-93
2021/06/29 06:40:09;;;;;;;2.85;1.60;;;21.40;86.40;;;;;;4979173;28;20065;-94
2021/06/29 06:42:35;;;;;;;3.10;1.35;;;21.40;85.80;;;;;;4978945;28;20062;-94
2021/06/29 06:45:00;;;;;;;2.20;1.40;;;21.30;85.70;;;;;;4979901;28;20019;-93
2021/06/29 06:47:26;;;;;;;3.78;1.60;;;21.30;86.20;;;;;;4971285;28;20479;-88
2021/06/29 06:49:52;;;;;;;1.98;1.50;;;21.30;86.20;;;;;;4959588;28;20027;-83
2021/06/29 06:52:18;;;;;;;2.67;1.50;;;21.40;86.00;;;;;;4962925;28;20019;-93
2021/06/29 06:54:44;;;;;;;3.70;1.38;;;21.40;85.70;;;;;;4980952;28;20596;-95
2021/06/29 06:57:11;;;;;;;2.30;1.40;;;21.40;86.10;;;;;;4962212;28;20091;-92
2021/06/29 06:59:37;;;;;;;3.40;1.50;;;21.40;84.70;;;;;;4983530;28;20571;-89
2021/06/29 07:02:03;;;;;;;4.03;1.48;;;21.50;84.90;;;;;;4976512;28;20034;-90
2021/06/29 07:04:29;;;;;;;1.88;1.38;;;21.50;84.50;;;;;;4959029;28;20093;-88
2021/06/29 07:06:55;;;;;;;2.80;1.63;;;21.50;85.00;;;;;;4959040;28;20459;-86
2021/06/29 07:09:21;;;;;;;1.60;1.38;;;21.40;84.80;;;;;;4972004;28;20030;-86
2021/06/29 07:11:47;;;;;;;2.35;1.50;;;21.30;85.10;;;;;;4976467;28;20193;-86
2021/06/29 07:14:12;;;;;;;1.83;1.50;;;21.20;85.50;;;;;;4956400;28;20022;-87
2021/06/29 07:16:39;;;;;;;2.53;1.33;;;21.20;85.50;;;;;;4975554;28;20027;-87
2021/06/29 07:19:05;;;;;;;1.77;1.38;;;21.10;85.60;;;;;;4969869;28;20113;-92
2021/06/29 07:21:31;;;;;;;5.03;1.58;;;21.10;86.00;;;;;;4978058;28;20064;-91
2021/06/29 07:23:57;;;;;;;1.50;1.40;;;21.10;86.40;;;;;;4964625;28;20418;-93
2021/06/29 07:26:23;;;;;;;1.95;1.33;;;21.10;86.20;;;;;;4976355;28;20054;-87
2021/06/29 07:28:49;;;;;;;4.38;1.40;;;21.20;86.70;;;;;;4977518;28;20034;-90
2021/06/29 07:31:18;;;;;;;3.35;1.55;;;21.20;86.50;;;;;;4969334;28;20126;-91
2021/06/29 07:33:48;;;;;;;2.22;1.55;;;21.20;85.90;;;;;;4959188;28;20047;-91
2021/06/29 07:36:16;;;;;;;3.03;1.55;;;21.20;86.00;;;;;;4961809;28;20026;-94
2021/06/29 07:38:43;;;;;;;2.33;1.30;;;21.20;84.90;;;;;;4969798;28;20105;-93
2021/06/29 07:41:10;;;;;;;1.90;1.30;;;21.30;84.40;;;;;;4981450;28;20534;-92
2021/06/29 07:43:36;;;;;;;1.85;1.20;;;21.30;84.20;;;;;;4977646;28;20113;-87
2021/06/29 07:46:02;;;;;;;1.40;1.30;;;21.30;84.20;;;;;;4994918;28;20103;-84
2021/06/29 07:48:28;;;;;;;2.00;1.35;;;21.30;85.20;;;;;;4967770;28;20037;-87
2021/06/29 07:50:54;;;;;;;1.75;1.23;;;21.30;83.60;;;;;;4999716;28;20034;-83
2021/06/29 07:53:20;;;;;;;2.35;1.55;;;21.30;83.70;;;;;;4981382;28;20027;-85
2021/06/29 07:55:46;;;;;;;1.83;1.30;;;21.30;84.00;;;;;;4983571;28;20026;-84
2021/06/29 07:58:12;;;;;;;3.28;1.27;;;21.40;85.00;;;;;;4984421;28;20038;-86
2021/06/29 08:00:38;;;;;;;1.70;1.42;;;21.50;84.90;;;;;;4971402;28;20026;-88
2021/06/29 08:03:04;;;;;;;1.65;1.13;;;21.50;82.50;;;;;;4972254;28;20034;-91
2021/06/29 08:05:30;;;;;;;1.48;1.20;;;21.50;81.50;;;;;;4973570;28;20054;-87
2021/06/29 08:07:56;;;;;;;2.95;1.23;;;21.50;82.00;;;;;;4986354;28;20030;-89
2021/06/29 08:10:22;;;;;;;1.98;1.20;;;21.50;82.60;;;;;;4978739;28;20029;-85
2021/06/29 08:12:49;;;;;;;1.83;1.25;;;21.60;82.70;;;;;;4968953;28;20089;-83
2021/06/29 08:15:17;;;;;;;3.95;1.45;;;21.60;82.30;;;;;;4972674;28;20022;-91
2021/06/29 08:17:45;;;;;;;4.35;1.30;;;21.60;82.30;;;;;;4972538;28;20030;-91
2021/06/29 08:20:12;;;;;;;2.05;1.20;;;21.60;82.00;;;;;;4963136;28;20014;-90
2021/06/29 08:22:40;;;;;;;1.88;1.00;;;21.70;81.20;;;;;;4958521;28;20372;-92
2021/06/29 08:25:07;;;;;;;1.55;0.90;;;21.70;80.30;;;;;;4968692;28;20026;-91
2021/06/29 08:27:33;;;;;;;4.00;1.33;;;21.80;80.10;;;;;;4977234;28;20053;-91
2021/06/29 08:29:58;;;;;;;3.13;1.50;;;21.80;80.50;;;;;;4977851;28;20456;-96
2021/06/29 08:32:25;;;;;;;2.20;1.20;;;21.80;80.70;;;;;;4963330;28;20075;-95
2021/06/29 08:34:53;;;;;;;2.67;1.40;;;21.90;81.70;;;;;;4968379;28;20026;-89
2021/06/29 08:37:19;;;;;;;1.00;0.90;;;21.90;81.50;;;;;;4970666;28;20022;-90
2021/06/29 08:39:45;;;;;;;1.73;1.27;;;22.00;81.50;;;;;;4976617;28;20101;-91
2021/06/29 08:42:13;;;;;;;3.55;1.30;;;21.90;81.70;;;;;;4990413;28;20456;-92
2021/06/29 08:44:39;;;;;;;1.70;1.15;;;22.00;80.80;;;;;;4957585;28;20023;-91
2021/06/29 08:47:08;;;;;;;2.30;1.00;;;22.00;79.70;;;;;;4965328;28;20022;-88
2021/06/29 08:49:34;;;;;;;2.38;1.20;;;22.10;78.00;;;;;;4975624;28;20032;-87
2021/06/29 08:52:02;;;;;;;3.40;1.10;;;22.20;78.50;;;;;;4986200;28;20113;-87
2021/06/29 08:54:27;;;;;;;1.10;1.00;;;22.20;78.40;;;;;;4958580;28;20111;-86
2021/06/29 08:56:53;;;;;;;1.63;1.10;;;22.30;78.20;;;;;;4968734;28;20066;-93
2021/06/29 08:59:25;;;;;;;1.77;1.05;;;22.20;78.00;;;;;;4977705;28;20026;-92
2021/06/29 09:01:50;;;;;;;;;;;22.30;78.30;;;;;;4971698;28;20030;-93
2021/06/29 09:04:42;;;;;;;1.40;1.02;;;22.30;78.20;;;;;;4961897;28;19902;-94
2021/06/29 09:07:18;;;;;;;;;;;22.40;77.70;;;;;;4987387;28;20096;-89
2021/06/29 09:09:57;;;;;;;2.13;1.15;;;22.40;77.70;;;;;;4971382;28;20347;-86
2021/06/29 09:12:42;;;;;;;1.40;1.30;;;22.40;78.10;;;;;;4980223;28;20073;-94
2021/06/29 09:15:34;;;;;;;3.17;1.20;;;22.50;75.70;;;;;;4966329;28;20026;-88
2021/06/29 09:18:06;;;;;;;1.23;0.98;;;22.60;75.50;;;;;;4995807;28;20030;-85
2021/06/29 09:20:37;;;;;;;2.13;1.35;;;22.50;74.60;;;;;;4977454;28;20053;-89
2021/06/29 09:23:24;;;;;;;1.75;1.08;;;22.50;75.20;;;;;;4961380;28;20105;-91
2021/06/29 09:25:53;;;;;;;1.45;1.35;;;22.60;74.30;;;;;;4976823;28;20795;-88
2021/06/29 09:28:25;;;;;;;2.13;1.10;;;22.70;75.20;;;;;;4980574;28;20084;-88
2021/06/29 09:31:01;;;;;;;1.77;1.10;;;22.70;74.30;;;;;;4979937;28;20026;-87
2021/06/29 09:33:32;;;;;;;1.40;1.10;;;22.70;74.00;;;;;;4997403;28;20053;-87
2021/06/29 09:36:00;;;;;;;1.10;1.00;;;22.80;73.60;;;;;;4980090;28;20019;-89
2021/06/29 09:38:35;;;;;;;2.47;1.13;;;22.90;73.40;;;;;;4980322;28;20032;-88
2021/06/29 09:41:29;;;;;;;1.15;1.00;;;23.00;73.00;;;;;;4972895;28;20019;-85
2021/06/29 10:51:39;;;;;;;1.52;1.30;;;24.50;68.40;;;;;;4884554;29;20052;-84
2021/06/29 10:54:37;;;;;;;2.47;1.50;;;24.50;69.00;;;;;;4879544;29;20029;-81
2021/06/29 10:57:07;;;;;;;1.80;1.27;;;24.50;67.40;;;;;;4899105;29;20516;-82
2021/06/29 10:59:35;;;;;;;1.58;1.08;;;24.50;66.50;;;;;;4882734;29;20537;-83
2021/06/29 11:02:01;;;;;;;1.60;1.27;;;24.50;66.20;;;;;;4920917;29;20029;-83
2021/06/29 11:04:53;;;;;;;3.22;1.27;;;24.50;66.50;;;;;;4882660;29;20120;-82
2021/06/29 11:07:25;;;;;;;2.50;1.30;;;24.50;66.60;;;;;;4882837;29;20033;-83
2021/06/29 11:10:03;;;;;;;1.63;1.27;;;24.60;66.20;;;;;;4887136;29;20051;-81
2021/06/29 11:12:31;;;;;;;2.30;1.25;;;24.70;66.10;;;;;;4916178;29;20050;-80
2021/06/29 11:14:59;;;;;;;1.75;1.40;;;24.80;66.40;;;;;;4915856;29;20024;-80
2021/06/29 11:17:51;;;;;;;1.60;1.40;;;24.90;67.00;;;;;;4911986;29;20036;-80
2021/06/29 11:20:37;;;;;;;3.20;1.40;;;25.10;68.10;;;;;;4881141;29;20037;-82
2021/06/29 11:23:06;;;;;;;3.53;1.25;;;25.30;63.40;;;;;;4879158;29;20047;-81
2021/06/29 11:25:32;;;;;;;1.10;1.00;;;25.40;63.00;;;;;;4894302;29;20028;-82
2021/06/29 11:28:11;;;;;;;2.45;1.20;;;25.50;62.00;;;;;;4896874;29;20462;-82
2021/06/29 11:30:55;;;;;;;1.75;1.50;;;25.60;60.90;;;;;;4897771;29;20025;-86
2021/06/29 11:33:32;;;;;;;1.65;1.17;;;25.80;60.90;;;;;;4899193;29;20095;-82
2021/06/29 11:35:58;;;;;;;3.17;1.25;;;25.80;61.70;;;;;;4900749;29;20100;-80
2021/06/29 11:38:31;;;;;;;2.17;1.10;;;25.90;63.80;;;;;;4900121;29;20043;-82
2021/06/29 11:40:56;;;;;;;1.70;1.38;;;25.90;59.80;;;;;;4882935;29;20056;-83
2021/06/29 11:43:28;;;;;;;2.05;1.55;;;25.90;60.10;;;;;;4883369;29;20120;-82
2021/06/29 11:45:54;;;;;;;1.30;1.20;;;25.90;60.00;;;;;;4883948;29;20037;-83
2021/06/29 11:48:43;;;;;;;1.40;1.30;;;25.90;60.10;;;;;;4883712;29;20059;-80
2021/06/29 11:51:08;;;;;;;1.15;1.05;;;25.90;59.70;;;;;;4882947;29;20053;-80
2021/06/29 11:53:38;;;;;;;1.38;1.20;;;25.80;60.40;;;;;;4881836;29;20089;-81
2021/06/29 11:56:10;;;;;;;1.38;1.27;;;25.70;60.50;;;;;;4881958;29;20084;-77
2021/06/29 11:58:45;;;;;;;1.52;1.30;;;25.60;60.80;;;;;;4883604;29;20029;-81
2021/06/29 12:01:11;;;;;;;4.00;1.67;;;25.50;62.10;;;;;;4883995;29;20040;-78
2021/06/29 12:03:36;;;;;;;1.65;1.30;;;25.50;61.90;;;;;;4882100;29;20374;-81
2021/06/29 12:06:02;;;;;;;1.50;1.40;;;25.40;62.60;;;;;;4898809;29;20458;-80
2021/06/29 12:08:28;;;;;;;2.60;1.23;;;25.20;62.50;;;;;;4898858;29;20470;-80
2021/06/29 12:10:57;;;;;;;1.45;1.23;;;25.10;62.30;;;;;;4881267;29;20442;-80
2021/06/29 12:13:25;;;;;;;6.25;0.98;;;24.90;62.60;;;;;;4881952;29;20470;-79
2021/06/29 12:15:53;;;;;;;1.35;0.70;;;24.70;62.40;;;;;;4899115;29;20032;-81
2021/06/29 12:18:36;;;;;;;0.80;0.50;;;24.10;61.70;;;;;;4883528;29;20044;-82
2021/06/29 12:21:05;;;;;;;0.57;0.30;;;23.50;62.30;;;;;;4882783;29;20088;-84
2021/06/29 12:23:39;;;;;;;0.70;0.40;;;22.90;64.10;;;;;;4882291;29;20120;-84
2021/06/29 12:26:12;;;;;;;0.63;0.43;;;22.30;70.00;;;;;;4882894;29;20498;-83
2021/06/29 12:28:39;;;;;;;2.78;0.77;;;21.70;76.10;;;;;;4883021;29;20036;-86
2021/06/29 12:31:10;;;;;;;2.15;1.02;;;21.10;82.70;;;;;;4882828;29;20051;-83
2021/06/29 12:33:37;;;;;;;;;;;20.60;86.50;;;;;;4882384;29;20419;-79
2021/06/29 12:36:22;;;;;;;3.00;1.05;;;20.40;89.70;;;;;;4881642;29;19916;-84
2021/06/29 12:38:52;;;;;;;3.22;1.50;;;20.00;90.70;;;;;;4881177;29;20076;-83
2021/06/29 12:41:21;;;;;;;4.05;1.35;;;19.70;91.20;;;;;;4882686;29;20035;-84
2021/06/29 12:43:52;;;;;;;3.17;1.48;;;19.50;92.20;;;;;;4898625;29;20048;-80
2021/06/29 12:46:28;;;;;;;;;;;19.30;92.50;;;;;;4882137;29;20040;-83
2021/06/29 12:49:10;;;;;;;1.30;1.17;;;19.10;93.20;;;;;;4898214;29;19912;-81
2021/06/29 12:51:47;;;;;;;1.67;1.30;;;19.00;93.40;;;;;;4888220;29;20052;-81
2021/06/29 12:54:16;;;;;;;2.50;1.08;;;18.80;93.60;;;;;;4882232;29;20044;-82
2021/06/29 12:56:46;;;;;;;1.52;1.08;;;18.80;93.60;;;;;;4884892;29;20029;-86
2021/06/29 12:59:13;;;;;;;1.42;1.00;;;18.70;93.60;;;;;;4901761;29;20446;-80
2021/06/29 13:01:45;;;;;;;2.85;1.02;;;18.70;93.60;;;;;;4899454;29;20483;-80
2021/06/29 13:04:14;;;;;;;1.50;0.93;;;18.60;93.50;;;;;;4899741;29;20029;-85
2021/06/29 13:06:45;;;;;;;2.78;0.93;;;18.60;93.60;;;;;;4901039;29;20036;-85
2021/06/29 13:09:14;;;;;;;2.70;0.90;;;18.60;93.60;;;;;;4901980;29;20028;-84
2021/06/29 13:11:50;;;;;;;1.95;1.00;;;18.60;93.80;;;;;;4917898;29;20028;-85
2021/06/29 13:14:16;;;;;;;2.58;1.00;;;18.60;93.30;;;;;;4900168;29;20039;-78
2021/06/29 13:16:42;;;;;;;3.28;0.88;;;18.70;93.50;;;;;;4882220;29;20040;-80
2021/06/29 13:19:21;;;;;;;1.65;0.82;;;18.70;93.20;;;;;;4881036;29;20033;-82
2021/06/29 13:21:59;;;;;;;1.63;0.93;;;18.70;93.30;;;;;;4882440;29;20064;-80
2021/06/29 13:24:25;;;;;;;1.13;0.80;;;18.80;93.10;;;;;;4896434;29;20029;-80
2021/06/29 13:27:01;;;;;;;3.88;0.70;;;18.80;92.50;;;;;;4880246;29;20036;-81
2021/06/29 13:29:32;;;;;;;0.70;0.70;;;18.80;92.50;;;;;;4880759;29;20040;-81
2021/06/29 13:31:58;;;;;;;1.15;0.93;;;18.90;92.60;;;;;;4886755;29;20060;-83
2021/06/29 13:34:33;;;;;;;1.55;0.82;;;18.90;92.20;;;;;;4896068;29;20155;-82
2021/06/29 13:37:38;;;;;;;1.52;0.80;;;19.00;92.10;;;;;;4891546;29;20469;-81
2021/06/29 13:40:22;;;;;;;0.88;0.63;;;19.10;92.20;;;;;;4787205;29;20088;-84
2021/06/29 13:43:06;;;;;;;0.98;0.70;;;19.20;92.20;;;;;;4859892;29;20526;-85
2021/06/29 13:45:42;;;;;;;2.03;0.77;;;19.20;91.90;;;;;;4879699;29;20029;-88
2021/06/29 13:48:09;;;;;;;1.20;0.70;;;19.10;91.70;;;;;;4882521;29;20437;-79
2021/06/29 13:50:37;;;;;;;1.67;0.75;;;19.10;91.80;;;;;;4889934;29;20084;-80
2021/06/29 13:53:09;;;;;;;1.65;0.80;;;19.10;92.30;;;;;;4883576;29;20029;-78
2021/06/29 13:55:50;;;;;;;2.13;0.90;;;18.90;92.30;;;;;;4866139;29;20037;-78
2021/06/29 13:58:25;;;;;;;2.38;0.80;;;18.90;92.50;;;;;;4871763;29;20032;-81
2021/06/29 14:00:57;;;;;;;1.42;0.73;;;18.80;92.30;;;;;;4883273;29;20147;-81
2021/06/29 14:03:25;;;;;;;0.60;0.60;;;18.80;92.30;;;;;;4869325;29;20041;-80